Terminal Aerodrome Forecast
Issued by NWS Chicago, IL

Home | Current Version | Previous Version | Text Only | Print | Product List | Glossary On
Versions: 1 2 3 4 5 6 7 8 9 10 11 12 13 14 15 16 17 18 19 20 21 22 23 24 25 26 27
323
FTUS43 KLOT 220537
TAFRFD
TAF
KRFD 220537Z 2206/2306 21008KT P6SM FEW050 OVC150
     FM220800 25008KT 6SM -SHRA BR OVC025
     FM221300 29011KT P6SM BKN015
     FM221600 34014G20KT P6SM SCT035
     FM230100 31008KT P6SM SKC=

USA.gov is the U.S. government's official web portal to all federal, state and local government web resources and services.